Time;durP1;ratioP1;P1;durP2;ratioP2;P2;SDS_P1;SDS_P2;PMS_P1;PMS_P2;Temp;Humidity;BMP_temperature;BMP_pressure;BME280_temperature;BME280_humidity;BME280_pressure;Samples;Min_cycle;Max_cycle;Signal;HPM_P1;HPM_P2
2022/03/18 00:01:00;;;;;;;26.30;20.93;;;8.60;99.90;;;;;;5096216;28;20457;-56
2022/03/18 00:03:27;;;;;;;31.00;23.23;;;8.70;99.90;;;;;;5096369;28;20947;-56
2022/03/18 00:05:54;;;;;;;30.97;22.50;;;8.60;99.90;;;;;;5096445;28;20496;-56
2022/03/18 00:08:22;;;;;;;28.80;21.70;;;8.60;99.90;;;;;;5096245;28;20546;-56
2022/03/18 00:10:50;;;;;;;29.23;21.93;;;8.60;99.90;;;;;;5096509;28;20448;-56
2022/03/18 00:13:17;;;;;;;27.67;21.50;;;8.70;99.90;;;;;;5095821;28;20455;-57
2022/03/18 00:15:44;;;;;;;27.17;20.93;;;8.60;99.90;;;;;;5096312;28;20444;-57
2022/03/18 00:18:11;;;;;;;30.30;20.23;;;8.60;99.90;;;;;;5095982;28;20491;-57
2022/03/18 00:20:38;;;;;;;26.53;19.53;;;8.60;99.90;;;;;;5096224;28;20450;-56
2022/03/18 00:23:05;;;;;;;24.60;19.93;;;8.60;99.90;;;;;;5096148;28;20466;-57
2022/03/18 00:25:34;;;;;;;22.33;18.70;;;8.60;99.90;;;;;;5095934;28;20483;-57
2022/03/18 00:28:01;;;;;;;21.63;17.10;;;8.60;99.90;;;;;;5095781;28;20479;-56
2022/03/18 00:30:28;;;;;;;26.90;20.40;;;8.60;99.90;;;;;;5095999;28;20447;-56
2022/03/18 00:32:55;;;;;;;21.27;18.63;;;8.60;99.90;;;;;;5096032;28;20452;-56
2022/03/18 00:35:23;;;;;;;24.20;20.07;;;8.60;99.90;;;;;;5095624;28;20475;-57
2022/03/18 00:37:51;;;;;;;26.47;20.43;;;8.60;99.90;;;;;;5095789;28;20481;-56
2022/03/18 00:40:18;;;;;;;24.53;18.33;;;8.70;99.90;;;;;;5095456;28;20530;-56
2022/03/18 00:42:47;;;;;;;26.20;19.17;;;8.70;99.90;;;;;;5095647;28;20451;-56
2022/03/18 00:45:15;;;;;;;20.97;18.60;;;8.70;99.90;;;;;;5095686;28;20445;-56
2022/03/18 00:53:20;;;;;;;22.40;18.10;;;8.70;99.90;;;;;;5095347;28;20460;-56
2022/03/18 00:55:47;;;;;;;22.37;18.07;;;8.70;99.90;;;;;;5095650;28;20443;-57
2022/03/18 00:58:15;;;;;;;21.03;16.60;;;8.70;99.90;;;;;;5095424;28;20883;-56
2022/03/18 01:00:43;;;;;;;18.50;15.60;;;8.70;99.90;;;;;;5095159;28;20530;-56
2022/03/18 01:03:10;;;;;;;22.60;19.13;;;8.70;99.90;;;;;;5095150;28;20539;-56
2022/03/18 01:05:37;;;;;;;25.57;17.77;;;8.70;99.90;;;;;;5095454;28;20444;-56
2022/03/18 01:08:05;;;;;;;23.67;18.80;;;8.70;99.90;;;;;;5095207;28;20895;-56
2022/03/18 01:10:33;;;;;;;20.50;16.97;;;8.70;99.90;;;;;;5094788;28;20443;-57
2022/03/18 01:13:01;;;;;;;21.43;16.87;;;8.70;99.90;;;;;;5095262;28;20455;-57
2022/03/18 01:15:29;;;;;;;22.73;18.77;;;8.70;99.90;;;;;;5094775;28;20483;-56
2022/03/18 01:17:57;;;;;;;20.17;16.33;;;8.60;99.90;;;;;;5094999;28;20494;-57
2022/03/18 01:20:24;;;;;;;25.90;17.30;;;8.60;99.90;;;;;;5095157;28;20443;-56
2022/03/18 01:22:51;;;;;;;20.27;16.10;;;8.60;99.90;;;;;;5094678;28;20534;-56
2022/03/18 01:25:18;;;;;;;19.70;16.30;;;8.60;99.90;;;;;;5094782;28;20447;-56
2022/03/18 01:27:46;;;;;;;17.10;15.30;;;8.50;99.90;;;;;;5094628;28;20830;-56
2022/03/18 01:30:14;;;;;;;20.60;15.13;;;8.50;99.90;;;;;;5094854;28;20521;-56
2022/03/18 01:32:43;;;;;;;16.63;14.90;;;8.70;99.90;;;;;;5094808;28;20443;-56
2022/03/18 01:35:11;;;;;;;19.53;16.70;;;8.60;99.90;;;;;;5094803;28;20819;-56
2022/03/18 01:37:38;;;;;;;20.73;16.37;;;8.60;99.90;;;;;;5094671;28;20545;-56
2022/03/18 01:40:07;;;;;;;18.07;15.80;;;8.60;99.90;;;;;;5094377;28;20447;-56
2022/03/18 01:42:34;;;;;;;22.40;16.47;;;8.70;99.90;;;;;;5094665;28;20451;-56
2022/03/18 01:45:01;;;;;;;18.40;15.60;;;8.70;99.90;;;;;;5094671;28;20432;-56
2022/03/18 01:47:29;;;;;;;20.40;16.03;;;8.70;99.90;;;;;;5094291;28;20472;-56
2022/03/18 01:49:58;;;;;;;23.50;15.80;;;8.70;99.90;;;;;;5093876;28;20562;-56
2022/03/18 01:52:25;;;;;;;22.83;16.73;;;8.60;99.90;;;;;;5094312;28;20898;-56
2022/03/18 01:54:53;;;;;;;19.57;15.10;;;8.60;99.90;;;;;;5094019;28;20574;-56
2022/03/18 01:57:21;;;;;;;17.40;15.30;;;8.70;99.90;;;;;;5093977;28;21016;-56
2022/03/18 01:59:49;;;;;;;19.17;16.87;;;8.70;99.90;;;;;;5094463;28;20512;-56
2022/03/18 02:02:17;;;;;;;23.40;14.27;;;8.60;99.90;;;;;;5093994;28;20530;-56
2022/03/18 02:04:46;;;;;;;16.90;14.17;;;8.60;99.90;;;;;;5094221;28;20478;-56
2022/03/18 02:07:15;;;;;;;21.63;14.20;;;8.50;99.90;;;;;;5094261;28;20820;-56
2022/03/18 02:09:43;;;;;;;17.83;14.87;;;8.60;99.90;;;;;;5094137;28;20466;-56
2022/03/18 02:12:10;;;;;;;18.30;15.07;;;8.70;99.90;;;;;;5093907;28;20526;-56
2022/03/18 02:14:40;;;;;;;18.80;13.97;;;8.60;99.90;;;;;;5093824;28;21040;-56
2022/03/18 02:17:09;;;;;;;15.70;14.00;;;8.60;99.90;;;;;;5093772;28;20984;-56
2022/03/18 02:19:37;;;;;;;16.10;13.80;;;8.70;99.90;;;;;;5093947;28;20447;-56
2022/03/18 02:22:10;;;;;;;18.00;14.57;;;8.70;99.90;;;;;;5093280;28;20929;-56
2022/03/18 02:24:39;;;;;;;18.30;14.40;;;8.60;99.90;;;;;;5094073;28;20420;-56
2022/03/18 02:27:06;;;;;;;17.13;14.83;;;8.60;99.90;;;;;;5093749;28;20468;-56
2022/03/18 02:29:34;;;;;;;17.43;15.53;;;8.50;99.90;;;;;;5093548;28;21127;-56
2022/03/18 02:32:03;;;;;;;16.53;14.00;;;8.50;99.90;;;;;;5093891;28;20458;-56
2022/03/18 02:34:30;;;;;;;19.13;14.70;;;8.40;99.90;;;;;;5093460;28;21042;-56
2022/03/18 02:36:58;;;;;;;19.60;14.30;;;8.50;99.90;;;;;;5093648;28;20562;-56
2022/03/18 02:39:25;;;;;;;19.07;15.37;;;8.50;99.90;;;;;;5093432;28;20926;-56
2022/03/18 02:41:55;;;;;;;18.70;15.83;;;8.40;99.90;;;;;;5093308;28;20450;-56
2022/03/18 02:44:22;;;;;;;19.50;14.90;;;8.50;99.90;;;;;;5093813;28;20452;-56
2022/03/18 02:46:50;;;;;;;16.97;13.63;;;8.50;99.90;;;;;;5093224;28;20555;-56
2022/03/18 02:49:17;;;;;;;18.40;14.30;;;8.50;99.90;;;;;;5093389;28;20926;-56
2022/03/18 02:51:44;;;;;;;16.57;14.53;;;8.50;99.90;;;;;;5053046;28;20944;-56
2022/03/18 02:54:12;;;;;;;17.37;13.50;;;8.50;99.90;;;;;;5052919;28;20448;-56
2022/03/18 02:56:40;;;;;;;16.03;13.37;;;8.50;99.90;;;;;;5053322;28;20473;-56
2022/03/18 02:59:09;;;;;;;19.13;14.90;;;8.50;99.90;;;;;;5052949;28;20944;-56
2022/03/18 03:01:36;;;;;;;20.37;14.40;;;8.60;99.90;;;;;;5052925;28;20544;-56
2022/03/18 03:04:03;;;;;;;15.53;13.83;;;8.50;99.90;;;;;;5053292;28;20456;-56
2022/03/18 03:09:16;;;;;;;19.37;14.40;;;8.50;99.90;;;;;;5052949;28;20409;-56
2022/03/18 03:11:44;;;;;;;16.10;14.40;;;8.60;99.90;;;;;;5053055;28;20508;-56
2022/03/18 03:14:13;;;;;;;19.60;14.90;;;8.50;99.90;;;;;;5053358;28;20844;-56
2022/03/18 03:16:40;;;;;;;18.87;13.63;;;8.40;99.90;;;;;;5053085;28;20469;-56
2022/03/18 03:19:07;;;;;;;17.80;14.17;;;8.40;99.90;;;;;;5053069;28;20449;-56
2022/03/18 03:21:35;;;;;;;18.53;13.70;;;8.50;99.90;;;;;;5053187;28;20441;-56
2022/03/18 03:24:03;;;;;;;15.50;13.20;;;8.50;99.90;;;;;;5053137;28;20508;-56
2022/03/18 03:26:30;;;;;;;14.97;12.73;;;8.40;99.90;;;;;;5052909;28;20445;-56
2022/03/18 03:28:57;;;;;;;15.90;14.30;;;8.50;99.90;;;;;;5052703;28;20442;-56
2022/03/18 03:31:26;;;;;;;21.40;13.77;;;8.40;99.90;;;;;;5053101;28;20828;-56
2022/03/18 03:33:53;;;;;;;14.90;11.80;;;8.40;99.90;;;;;;5055950;28;20455;-56
2022/03/18 03:36:25;;;;;;;15.07;13.47;;;8.40;99.90;;;;;;5056653;28;20484;-56
2022/03/18 03:38:52;;;;;;;15.70;14.07;;;8.50;99.90;;;;;;5056897;28;20503;-56
2022/03/18 03:41:21;;;;;;;14.83;13.20;;;8.50;99.90;;;;;;5056563;28;20449;-56
2022/03/18 03:43:48;;;;;;;17.60;13.70;;;8.40;99.90;;;;;;5056797;28;20554;-56
2022/03/18 03:46:15;;;;;;;16.97;13.43;;;8.40;99.90;;;;;;5056736;28;20441;-56
2022/03/18 03:48:44;;;;;;;16.43;13.10;;;8.50;99.90;;;;;;5056207;28;20481;-56
2022/03/18 03:51:11;;;;;;;19.87;13.77;;;8.50;99.90;;;;;;5087710;28;20483;-56
2022/03/18 03:53:38;;;;;;;20.53;12.90;;;8.40;99.90;;;;;;5096886;28;20796;-56
2022/03/18 03:56:06;;;;;;;15.70;13.10;;;8.40;99.90;;;;;;5096377;28;20485;-56
2022/03/18 03:58:33;;;;;;;16.00;13.70;;;8.40;99.90;;;;;;5096281;28;20520;-56
2022/03/18 04:01:00;;;;;;;15.57;13.07;;;8.40;99.90;;;;;;5096647;28;20451;-56
2022/03/18 04:03:28;;;;;;;15.83;12.50;;;8.40;99.90;;;;;;5096389;28;20443;-56
2022/03/18 04:05:56;;;;;;;15.20;12.93;;;8.40;99.90;;;;;;5096236;28;20447;-55
2022/03/18 04:08:23;;;;;;;15.77;12.70;;;8.50;99.90;;;;;;5096028;28;20554;-56
2022/03/18 04:10:52;;;;;;;15.90;13.50;;;8.40;99.90;;;;;;5096508;28;20459;-56
2022/03/18 04:13:19;;;;;;;15.53;12.80;;;8.50;99.90;;;;;;5096163;28;20885;-56
2022/03/18 04:15:47;;;;;;;16.50;14.10;;;8.50;99.90;;;;;;5095897;28;20479;-56
2022/03/18 04:18:14;;;;;;;16.97;13.80;;;8.40;99.90;;;;;;5096034;28;20562;-56
2022/03/18 04:20:41;;;;;;;18.00;12.37;;;8.40;99.90;;;;;;5096228;28;20443;-56
2022/03/18 04:23:10;;;;;;;15.93;13.47;;;8.30;99.90;;;;;;5095855;28;21002;-56
2022/03/18 04:25:37;;;;;;;15.87;13.63;;;8.40;99.90;;;;;;5096278;28;20444;-56
2022/03/18 04:28:05;;;;;;;15.03;13.53;;;8.40;99.90;;;;;;5096036;28;20822;-56
2022/03/18 04:30:32;;;;;;;17.87;13.70;;;8.30;99.90;;;;;;5096025;28;20451;-56
2022/03/18 04:32:59;;;;;;;18.03;13.10;;;8.40;99.90;;;;;;5096161;28;20847;-56
2022/03/18 04:35:26;;;;;;;16.17;12.00;;;8.40;99.90;;;;;;5095861;28;20487;-56
2022/03/18 04:37:53;;;;;;;21.50;13.97;;;8.30;99.90;;;;;;5095797;28;20464;-56
2022/03/18 04:40:22;;;;;;;18.07;14.37;;;8.40;99.90;;;;;;5095998;28;20454;-56
2022/03/18 04:42:49;;;;;;;24.80;15.90;;;8.40;99.90;;;;;;5095537;28;20466;-56
2022/03/18 04:45:17;;;;;;;15.53;13.73;;;8.30;99.90;;;;;;5095496;28;20789;-56
2022/03/18 04:47:44;;;;;;;16.90;12.47;;;8.30;99.90;;;;;;5095700;28;20463;-56
2022/03/18 04:50:11;;;;;;;16.63;13.43;;;8.30;99.90;;;;;;5094657;28;20981;-56
2022/03/18 04:52:38;;;;;;;18.37;13.53;;;8.30;99.90;;;;;;5095275;28;20546;-56
2022/03/18 04:55:07;;;;;;;17.77;14.77;;;8.30;99.90;;;;;;5095557;28;20490;-56
2022/03/18 04:57:35;;;;;;;19.63;14.03;;;8.30;99.90;;;;;;5095578;28;20460;-56
2022/03/18 05:00:05;;;;;;;19.50;14.47;;;8.30;99.90;;;;;;5095117;28;20452;-56
2022/03/18 05:02:32;;;;;;;15.93;12.70;;;8.30;99.90;;;;;;5095059;28;20946;-56
2022/03/18 05:04:59;;;;;;;19.13;14.00;;;8.30;99.90;;;;;;5095169;28;20462;-56
2022/03/18 05:07:26;;;;;;;17.53;14.60;;;8.30;99.90;;;;;;5095245;28;20459;-56
2022/03/18 05:09:54;;;;;;;17.20;12.80;;;8.30;99.90;;;;;;5095197;28;20444;-56
2022/03/18 05:12:21;;;;;;;18.23;13.90;;;8.40;99.90;;;;;;5094972;28;20995;-56
2022/03/18 05:14:52;;;;;;;20.10;14.30;;;8.30;99.90;;;;;;5095114;28;20446;-56
2022/03/18 05:17:19;;;;;;;18.80;14.23;;;8.40;99.90;;;;;;5094811;28;20550;-56
2022/03/18 05:19:46;;;;;;;16.53;13.50;;;8.40;99.90;;;;;;5095190;28;20801;-56
2022/03/18 05:22:13;;;;;;;17.03;13.27;;;8.40;99.90;;;;;;5094955;28;20450;-56
2022/03/18 05:24:40;;;;;;;15.60;11.90;;;8.40;99.90;;;;;;5094911;28;20471;-56
2022/03/18 05:27:08;;;;;;;17.40;12.87;;;8.30;99.90;;;;;;5094988;28;20470;-56
2022/03/18 05:29:35;;;;;;;17.43;12.47;;;8.40;99.90;;;;;;5094852;28;20448;-58
2022/03/18 05:32:05;;;;;;;18.07;13.23;;;8.30;99.90;;;;;;5094358;28;20958;-57
2022/03/18 05:34:32;;;;;;;36.27;15.27;;;8.30;99.90;;;;;;5094779;28;20451;-56
2022/03/18 05:36:59;;;;;;;16.57;13.40;;;8.40;99.90;;;;;;5094411;28;21014;-57
2022/03/18 05:39:27;;;;;;;20.43;14.20;;;8.40;99.90;;;;;;5094643;28;20462;-57
2022/03/18 05:41:54;;;;;;;17.53;13.10;;;;;;;;;;5094511;28;20443;-57
2022/03/18 05:44:21;;;;;;;24.23;15.50;;;8.40;99.90;;;;;;5094265;28;20455;-56
2022/03/18 05:46:48;;;;;;;20.50;14.90;;;8.30;99.90;;;;;;5094470;28;20538;-57
2022/03/18 05:49:18;;;;;;;23.10;15.63;;;8.20;99.90;;;;;;5094499;28;20451;-57
2022/03/18 05:51:46;;;;;;;17.17;13.53;;;8.20;99.90;;;;;;5093975;28;20479;-57
2022/03/18 05:54:14;;;;;;;18.17;14.10;;;8.20;99.90;;;;;;5094028;28;20447;-57
2022/03/18 05:56:53;;;;;;;21.53;15.90;;;8.20;99.90;;;;;;5093205;28;20487;-56
2022/03/18 05:59:22;;;;;;;19.13;14.90;;;8.20;99.90;;;;;;5093930;28;20920;-57
2022/03/18 06:01:49;;;;;;;20.60;16.50;;;8.20;99.90;;;;;;5094016;28;20975;-57
2022/03/18 06:04:18;;;;;;;23.03;15.43;;;8.20;99.90;;;;;;5094147;28;20447;-57
2022/03/18 06:06:47;;;;;;;22.40;14.73;;;8.20;99.90;;;;;;5094060;28;20583;-57
2022/03/18 06:11:59;;;;;;;19.83;14.00;;;8.30;99.90;;;;;;5093734;28;20422;-57
2022/03/18 06:14:28;;;;;;;17.57;14.73;;;8.20;99.90;;;;;;5093535;28;20538;-57
2022/03/18 06:16:57;;;;;;;18.83;14.80;;;8.20;99.90;;;;;;5093876;28;20584;-57
2022/03/18 06:19:27;;;;;;;25.43;15.97;;;8.10;99.90;;;;;;5093530;28;20784;-57
2022/03/18 06:21:55;;;;;;;23.47;17.90;;;8.20;99.90;;;;;;5093848;28;20442;-57
2022/03/18 06:24:24;;;;;;;22.60;16.23;;;8.30;99.90;;;;;;5093699;28;20454;-57
2022/03/18 06:26:52;;;;;;;18.40;14.40;;;8.30;99.90;;;;;;5093637;28;20470;-57
2022/03/18 06:29:20;;;;;;;23.87;17.33;;;8.30;99.90;;;;;;5093796;28;20450;-57
2022/03/18 06:31:48;;;;;;;23.07;17.20;;;8.20;99.90;;;;;;5093345;28;20444;-58
2022/03/18 06:34:16;;;;;;;23.50;16.13;;;8.20;99.90;;;;;;5093490;28;20447;-57
2022/03/18 06:36:45;;;;;;;24.30;16.40;;;8.20;99.90;;;;;;5093405;28;20484;-56
2022/03/18 06:39:13;;;;;;;21.97;15.93;;;8.30;99.90;;;;;;5092977;28;21051;-58
2022/03/18 06:41:41;;;;;;;21.93;14.87;;;8.30;99.90;;;;;;5092908;28;20483;-57
2022/03/18 06:44:08;;;;;;;23.60;17.73;;;8.30;99.90;;;;;;5093184;28;20922;-58
2022/03/18 06:46:36;;;;;;;21.50;16.00;;;8.30;99.90;;;;;;5093321;28;20454;-57
2022/03/18 06:49:03;;;;;;;22.93;16.53;;;8.40;99.90;;;;;;5093098;28;20455;-58
2022/03/18 06:51:31;;;;;;;23.47;17.40;;;8.40;99.90;;;;;;5092956;28;20483;-57
2022/03/18 06:54:00;;;;;;;29.40;19.00;;;8.40;99.90;;;;;;5093607;28;20504;-57
2022/03/18 06:56:30;;;;;;;27.10;19.27;;;8.30;99.90;;;;;;5092718;28;20521;-57
2022/03/18 06:58:57;;;;;;;25.03;18.40;;;8.30;99.90;;;;;;5093253;28;20455;-58
2022/03/18 07:01:24;;;;;;;26.23;19.53;;;8.40;99.90;;;;;;5093390;28;20443;-58
2022/03/18 07:03:52;;;;;;;25.40;19.17;;;8.40;99.90;;;;;;5093229;28;20448;-57
2022/03/18 07:06:19;;;;;;;29.27;18.93;;;8.50;99.90;;;;;;5093394;28;20926;-57
2022/03/18 07:08:47;;;;;;;31.40;21.37;;;8.50;99.90;;;;;;5097858;28;20443;-57
2022/03/18 07:11:15;;;;;;;28.77;20.97;;;8.50;99.90;;;;;;5097143;28;20446;-57
2022/03/18 07:13:45;;;;;;;28.33;21.40;;;8.50;99.90;;;;;;5096897;28;20538;-57
2022/03/18 07:18:57;;;;;;;29.87;22.47;;;8.50;99.90;;;;;;5097177;28;20473;-57
2022/03/18 07:21:24;;;;;;;31.10;21.40;;;8.60;99.90;;;;;;5096889;28;20534;-57
2022/03/18 07:23:52;;;;;;;32.87;21.30;;;;;;;;;;5097136;28;20937;-57
2022/03/18 07:26:21;;;;;;;28.37;23.03;;;8.70;99.90;;;;;;5097006;28;20435;-57
2022/03/18 07:28:49;;;;;;;31.67;23.87;;;8.80;99.90;;;;;;5097314;28;20454;-57
2022/03/18 07:31:16;;;;;;;30.73;23.07;;;8.70;99.90;;;;;;5096999;28;20475;-57
2022/03/18 07:33:43;;;;;;;29.63;21.67;;;8.60;99.90;;;;;;5096789;28;20451;-57
2022/03/18 07:36:10;;;;;;;27.57;21.00;;;8.70;99.90;;;;;;5096943;28;20490;-57
2022/03/18 07:38:37;;;;;;;34.83;22.37;;;8.70;99.90;;;;;;5096713;28;20981;-57
2022/03/18 07:41:05;;;;;;;30.50;23.07;;;8.80;99.90;;;;;;5096847;28;20534;-57
2022/03/18 07:43:33;;;;;;;32.90;24.20;;;8.70;99.90;;;;;;5096523;28;20451;-57
2022/03/18 07:46:00;;;;;;;32.03;23.63;;;8.70;99.90;;;;;;5096112;28;20443;-57
2022/03/18 07:48:28;;;;;;;36.40;25.03;;;8.80;99.90;;;;;;5096576;28;20467;-57
2022/03/18 07:50:55;;;;;;;32.30;23.30;;;8.80;99.90;;;;;;5096224;28;20980;-57
2022/03/18 07:53:23;;;;;;;35.13;23.87;;;8.90;99.90;;;;;;5096515;28;20449;-57
2022/03/18 07:55:50;;;;;;;30.00;21.87;;;9.00;99.90;;;;;;5096426;28;20447;-57
2022/03/18 07:58:17;;;;;;;33.10;23.80;;;8.90;99.90;;;;;;5096669;28;20474;-57
2022/03/18 08:00:46;;;;;;;32.80;25.10;;;8.90;99.90;;;;;;5096118;28;20525;-58
2022/03/18 08:03:14;;;;;;;38.77;26.33;;;9.00;99.90;;;;;;5096249;28;20910;-57
2022/03/18 08:05:41;;;;;;;38.00;26.37;;;8.90;99.90;;;;;;5096560;28;20545;-57
2022/03/18 08:08:09;;;;;;;34.30;25.73;;;8.90;99.90;;;;;;5095874;28;20831;-56
2022/03/18 08:10:36;;;;;;;35.60;25.60;;;8.90;99.90;;;;;;5095896;28;20833;-57
2022/03/18 08:13:04;;;;;;;39.90;27.50;;;9.00;99.90;;;;;;5096044;28;20451;-56
2022/03/18 08:15:31;;;;;;;36.73;27.93;;;9.10;99.90;;;;;;5095918;28;20926;-56
2022/03/18 08:18:00;;;;;;;41.47;27.80;;;9.10;99.90;;;;;;5095029;28;20487;-56
2022/03/18 08:20:27;;;;;;;37.63;26.13;;;9.10;99.90;;;;;;5095620;28;20450;-56
2022/03/18 08:22:56;;;;;;;35.97;26.20;;;9.20;99.90;;;;;;5096026;28;20562;-56
2022/03/18 08:25:23;;;;;;;38.43;28.87;;;9.20;99.90;;;;;;5095679;28;20444;-56
2022/03/18 08:27:50;;;;;;;39.13;26.93;;;9.10;99.90;;;;;;5095933;28;20467;-56
2022/03/18 08:30:18;;;;;;;37.17;27.17;;;9.30;99.90;;;;;;5095738;28;20779;-56
2022/03/18 08:32:46;;;;;;;38.13;25.67;;;9.40;99.90;;;;;;5095418;28;20530;-57
2022/03/18 08:35:15;;;;;;;40.00;25.63;;;9.50;99.90;;;;;;5095625;28;20556;-56
2022/03/18 08:37:58;;;;;;;37.73;26.13;;;9.70;99.90;;;;;;5095425;28;20918;-56
2022/03/18 08:40:26;;;;;;;36.50;25.63;;;9.60;99.90;;;;;;5095430;28;20432;-57
2022/03/18 08:42:54;;;;;;;38.33;25.60;;;9.60;99.90;;;;;;5095135;28;20458;-57
2022/03/18 08:45:22;;;;;;;35.40;26.93;;;9.60;99.90;;;;;;5095357;28;20540;-57
2022/03/18 08:47:50;;;;;;;35.00;26.93;;;9.70;99.90;;;;;;5095520;28;20463;-57
2022/03/18 08:50:20;;;;;;;35.63;25.93;;;9.90;99.90;;;;;;5095121;28;20567;-57
2022/03/18 08:56:08;;;;;;;38.10;27.77;;;10.10;99.90;;;;;;5083168;28;20448;-57
2022/03/18 08:58:52;;;;;;;32.40;24.70;;;10.20;99.90;;;;;;5092770;28;20463;-57
2022/03/18 09:01:50;;;;;;;36.03;25.53;;;10.10;99.90;;;;;;5094931;28;20447;-57
2022/03/18 09:07:46;;;;;;;37.47;24.30;;;9.90;99.90;;;;;;5084202;28;20458;-57
2022/03/18 09:10:35;;;;;;;33.63;23.17;;;9.70;99.90;;;;;;5094571;28;20459;-57
2022/03/18 09:13:36;;;;;;;32.43;22.90;;;9.70;99.90;;;;;;5094654;28;20516;-57
2022/03/18 09:16:04;;;;;;;31.20;21.73;;;9.70;99.90;;;;;;5094898;28;20423;-57
2022/03/18 09:18:31;;;;;;;35.40;24.93;;;9.70;99.90;;;;;;5094527;28;20558;-57
2022/03/18 09:20:58;;;;;;;31.87;24.47;;;9.90;99.90;;;;;;5095010;28;20447;-58
2022/03/18 09:23:27;;;;;;;33.93;24.67;;;10.20;99.90;;;;;;5095039;28;20474;-57
2022/03/18 09:25:54;;;;;;;30.50;21.53;;;10.40;99.90;;;;;;5094586;28;20431;-57
2022/03/18 09:28:21;;;;;;;29.10;22.23;;;10.60;99.90;;;;;;5094368;28;20965;-57
2022/03/18 09:30:49;;;;;;;28.20;21.50;;;10.70;99.90;;;;;;5093837;28;20458;-56
2022/03/18 09:33:16;;;;;;;38.30;22.00;;;10.60;99.90;;;;;;5094598;28;20500;-58
2022/03/18 09:35:44;;;;;;;29.70;22.57;;;10.80;99.90;;;;;;5094648;28;20449;-56
2022/03/18 09:38:11;;;;;;;32.57;21.83;;;10.90;99.90;;;;;;5094288;28;20490;-57
2022/03/18 09:40:41;;;;;;;28.00;21.03;;;11.10;99.90;;;;;;5094508;28;20448;-56
2022/03/18 09:43:10;;;;;;;29.23;21.53;;;11.10;99.90;;;;;;5094212;28;20505;-57
2022/03/18 09:45:39;;;;;;;26.37;21.13;;;11.10;99.90;;;;;;5094284;28;20458;-57
2022/03/18 09:48:18;;;;;;;30.53;21.60;;;11.00;99.90;;;;;;5094352;28;20554;-56
2022/03/18 09:50:46;;;;;;;27.17;20.80;;;10.90;99.90;;;;;;5093938;28;20525;-57
2022/03/18 09:53:14;;;;;;;28.93;20.83;;;11.10;99.90;;;;;;5094283;28;20534;-57
2022/03/18 09:55:43;;;;;;;26.23;19.90;;;11.70;99.90;;;;;;5094322;28;20450;-56
2022/03/18 09:58:11;;;;;;;29.23;21.77;;;12.30;99.90;;;;;;5093848;28;20841;-56
2022/03/18 10:00:39;;;;;;;31.13;22.63;;;12.80;99.90;;;;;;5093664;28;20941;-56
2022/03/18 10:03:10;;;;;;;29.67;21.37;;;13.30;99.90;;;;;;5093848;28;20449;-56
2022/03/18 10:05:47;;;;;;;24.87;19.73;;;12.60;99.90;;;;;;5094315;28;20534;-56
2022/03/18 10:08:14;;;;;;;31.00;22.07;;;12.30;99.90;;;;;;5093828;28;20459;-56
2022/03/18 10:10:47;;;;;;;27.83;21.63;;;12.70;99.90;;;;;;5093736;28;20455;-56
2022/03/18 10:13:16;;;;;;;33.73;21.30;;;12.70;99.90;;;;;;5093652;28;20457;-57
2022/03/18 10:15:44;;;;;;;28.90;21.10;;;12.10;99.90;;;;;;5094076;28;20534;-57
2022/03/18 10:18:12;;;;;;;30.20;21.97;;;11.90;99.90;;;;;;5093768;28;20487;-57
2022/03/18 10:20:41;;;;;;;29.70;23.23;;;11.90;99.90;;;;;;5093478;28;20906;-57
2022/03/18 10:23:21;;;;;;;26.30;20.90;;;11.70;99.90;;;;;;5093796;28;20517;-57
2022/03/18 10:25:52;;;;;;;26.97;21.30;;;12.50;99.90;;;;;;5093551;28;20438;-57
2022/03/18 10:28:35;;;;;;;29.23;21.10;;;13.10;99.90;;;;;;5093598;28;20465;-57
2022/03/18 10:31:11;;;;;;;39.80;21.23;;;12.80;99.90;;;;;;5093428;28;20428;-57
2022/03/18 10:39:31;;;;;;;33.60;22.73;;;11.60;99.90;;;;;;5093339;28;20404;-58
2022/03/18 10:42:02;;;;;;;29.43;22.20;;;11.40;99.90;;;;;;5092966;28;20434;-57
2022/03/18 10:44:31;;;;;;;36.47;23.33;;;11.30;99.90;;;;;;5093444;28;20424;-56
2022/03/18 10:46:58;;;;;;;30.10;23.17;;;11.60;99.90;;;;;;5093461;28;20467;-57
2022/03/18 10:49:25;;;;;;;35.53;24.60;;;11.70;99.90;;;;;;5093240;28;20448;-56
2022/03/18 10:52:09;;;;;;;35.80;24.30;;;11.70;99.90;;;;;;5092764;28;20517;-57
2022/03/18 10:54:38;;;;;;;34.10;21.87;;;12.40;99.90;;;;;;5092829;28;20906;-57
2022/03/18 10:57:07;;;;;;;33.80;22.33;;;12.60;99.90;;;;;;5093618;28;20583;-57
2022/03/18 10:59:35;;;;;;;30.37;22.53;;;12.80;99.90;;;;;;5093135;28;20933;-57
2022/03/18 11:02:05;;;;;;;33.80;23.50;;;12.60;99.90;;;;;;5093280;28;20453;-57
2022/03/18 11:04:35;;;;;;;29.90;21.97;;;12.80;99.90;;;;;;5092966;28;20546;-57
2022/03/18 11:12:36;;;;;;;34.60;25.20;;;13.50;99.90;;;;;;5092848;28;20837;-57
2022/03/18 11:15:05;;;;;;;32.37;22.70;;;13.60;99.90;;;;;;5092814;28;20439;-57
2022/03/18 11:17:32;;;;;;;29.77;21.93;;;13.50;99.90;;;;;;5092771;28;20985;-57
2022/03/18 11:20:01;;;;;;;36.73;24.57;;;;;;;;;;5093343;28;20549;-57
2022/03/18 11:22:29;;;;;;;36.50;24.23;;;12.20;99.90;;;;;;5092825;28;20443;-57
2022/03/18 11:24:59;;;;;;;29.67;23.27;;;12.10;99.90;;;;;;5092700;28;20447;-57
2022/03/18 11:27:26;;;;;;;28.90;23.40;;;12.40;99.90;;;;;;5093208;28;20485;-57
2022/03/18 11:30:19;;;;;;;33.20;22.50;;;12.80;99.90;;;;;;5093010;28;20535;-57
2022/03/18 11:33:22;;;;;;;30.20;23.57;;;12.90;99.90;;;;;;5092951;28;20780;-57
2022/03/18 11:36:12;;;;;;;35.93;24.20;;;12.60;99.90;;;;;;5092758;28;20473;-57
2022/03/18 11:39:09;;;;;;;28.70;23.07;;;12.20;99.90;;;;;;5092710;28;20483;-57
2022/03/18 11:41:53;;;;;;;30.33;22.93;;;12.20;99.90;;;;;;5030364;28;20422;-57
2022/03/18 11:44:44;;;;;;;32.80;24.30;;;11.90;99.90;;;;;;5085054;28;20455;-57
2022/03/18 11:47:43;;;;;;;34.20;24.70;;;12.30;99.90;;;;;;5092535;28;20455;-57
2022/03/18 11:50:36;;;;;;;30.47;23.17;;;12.70;99.90;;;;;;5092620;28;20439;-58
2022/03/18 11:53:03;;;;;;;33.17;23.43;;;12.20;99.90;;;;;;5086009;28;20512;-57
2022/03/18 11:55:31;;;;;;;30.17;24.17;;;12.10;99.90;;;;;;5096453;28;20447;-55
2022/03/18 11:57:58;;;;;;;33.57;23.90;;;12.00;99.90;;;;;;5095927;28;20481;-57
2022/03/18 12:00:43;;;;;;;30.57;22.47;;;12.20;99.90;;;;;;5096292;28;20530;-57
2022/03/18 12:03:22;;;;;;;30.20;24.00;;;12.30;99.90;;;;;;5096437;28;20458;-58
2022/03/18 12:05:55;;;;;;;28.27;21.10;;;12.60;99.90;;;;;;5096228;28;20778;-58
2022/03/18 12:08:52;;;;;;;29.97;22.50;;;12.70;99.90;;;;;;5096278;28;20559;-57
2022/03/18 12:11:43;;;;;;;28.80;21.13;;;12.60;99.90;;;;;;5087187;28;20516;-57
2022/03/18 12:14:10;;;;;;;34.70;24.33;;;12.30;99.90;;;;;;5080564;28;20473;-58
2022/03/18 12:16:38;;;;;;;31.87;25.20;;;12.30;99.90;;;;;;5095990;28;20825;-56
2022/03/18 12:19:13;;;;;;;33.73;25.07;;;12.40;99.90;;;;;;5095543;28;20489;-57
2022/03/18 12:21:43;;;;;;;39.50;25.20;;;12.50;99.90;;;;;;5095510;28;20439;-58
2022/03/18 12:24:13;;;;;;;38.60;27.10;;;12.20;99.90;;;;;;5095451;28;20485;-57
2022/03/18 12:26:41;;;;;;;30.77;23.00;;;12.20;99.90;;;;;;5095616;28;20467;-57
2022/03/18 12:29:09;;;;;;;37.57;25.40;;;12.30;99.90;;;;;;5095917;28;20814;-57
2022/03/18 12:31:37;;;;;;;36.87;25.20;;;12.20;99.90;;;;;;5095832;28;20514;-56
2022/03/18 12:34:09;;;;;;;31.23;25.13;;;12.20;99.90;;;;;;5095447;28;20454;-57
2022/03/18 12:36:43;;;;;;;32.30;26.27;;;12.10;99.90;;;;;;5094211;28;20448;-56
2022/03/18 12:39:12;;;;;;;31.60;23.77;;;11.80;99.90;;;;;;5095329;28;20460;-57
2022/03/18 12:41:41;;;;;;;32.90;24.60;;;11.80;99.90;;;;;;5094220;28;20497;-56
2022/03/18 12:44:08;;;;;;;30.17;24.90;;;12.20;99.90;;;;;;5095069;28;20824;-56
2022/03/18 12:46:37;;;;;;;32.87;24.57;;;12.60;99.90;;;;;;5094746;28;20479;-55
2022/03/18 12:49:06;;;;;;;33.37;24.50;;;12.80;99.90;;;;;;5095249;28;20447;-56
2022/03/18 12:51:37;;;;;;;27.60;22.77;;;13.30;99.90;;;;;;5094773;28;20639;-56
2022/03/18 12:54:05;;;;;;;34.50;25.37;;;13.70;99.90;;;;;;5095322;28;20432;-56
2022/03/18 12:56:32;;;;;;;26.93;23.10;;;13.40;99.90;;;;;;5095204;28;20448;-56
2022/03/18 12:58:59;;;;;;;33.47;25.73;;;13.10;99.90;;;;;;5095353;28;20544;-57
2022/03/18 13:01:27;;;;;;;32.33;24.70;;;13.00;99.90;;;;;;5094342;28;20453;-55
2022/03/18 13:03:56;;;;;;;30.60;23.37;;;13.20;99.90;;;;;;5093933;28;20443;-56
2022/03/18 13:06:27;;;;;;;28.70;23.13;;;12.70;99.90;;;;;;5093745;28;20443;-55
2022/03/18 13:09:08;;;;;;;31.80;25.27;;;12.60;99.90;;;;;;5095387;28;20424;-57
2022/03/18 13:11:39;;;;;;;32.10;25.10;;;13.10;99.90;;;;;;5094846;28;20432;-57
2022/03/18 13:14:06;;;;;;;30.57;22.83;;;13.40;99.90;;;;;;5095087;28;20489;-56
2022/03/18 13:16:38;;;;;;;30.23;21.87;;;14.00;99.90;;;;;;5094718;28;20440;-57
2022/03/18 13:19:06;;;;;;;29.60;22.73;;;14.10;99.90;;;;;;5095031;28;20482;-56